Stein Arne Sordal har fløyet solo PDF Skriv ut E-post
Skrevet av Dmytro Yakovenko   
onsdag 26. juli 2017 21:49

Stein Arne Sordal fløy soloutsjekk med Hallgeir Olsen og sin første solotur i dag, 26. juli 2017 i flott sommervær. Skolen og Styret gratulerer Stein Arne med en vel gjennomført solotur og ønsker han lykke til med resten av skoleprogrammet. Hovedinstruktøren har vært Christoffer Lund.


Sist oppdatert onsdag 26. juli 2017 21:55
 
 
METAR
2019/01/18 19:50 ENCN 181950Z 20009KT CAVOK 01/M04 Q1013
TAF
2019/01/18 18:36 TAF TAF ENCN 181700Z 1818/1822 29005KT CAVOK
LN-KFK
Til service
VFR dag
08:11 - 17:06
Brannvakt
Inaktiv
Banner
Banner
Banner
Banner
Banner